sensor_id;sensor_type;location;lat;lon;timestamp;pressure;altitude;pressure_sealevel;temperature;humidity
57232;BME280;43488;46.934;8.276;2023-03-01T00:01:43;96899.91;;;1.16;78.55
57232;BME280;43488;46.934;8.276;2023-03-01T00:04:11;96895.66;;;1.14;79.10
57232;BME280;43488;46.934;8.276;2023-03-01T00:06:42;96896.34;;;1.07;79.47
57232;BME280;43488;46.934;8.276;2023-03-01T00:09:10;96887.22;;;1.03;78.75
57232;BME280;43488;46.934;8.276;2023-03-01T00:11:37;96890.22;;;1.08;78.77
57232;BME280;43488;46.934;8.276;2023-03-01T00:14:05;96889.25;;;1.09;79.19
57232;BME280;43488;46.934;8.276;2023-03-01T00:16:38;96883.00;;;1.02;79.82
57232;BME280;43488;46.934;8.276;2023-03-01T00:19:09;96882.88;;;1.03;80.34
57232;BME280;43488;46.934;8.276;2023-03-01T00:21:39;96874.28;;;1.03;80.65
57232;BME280;43488;46.934;8.276;2023-03-01T00:24:08;96878.66;;;1.02;80.57
57232;BME280;43488;46.934;8.276;2023-03-01T00:26:35;96868.28;;;1.02;79.90
57232;BME280;43488;46.934;8.276;2023-03-01T00:29:03;96868.94;;;1.04;79.24
57232;BME280;43488;46.934;8.276;2023-03-01T00:31:33;96878.50;;;1.04;79.22
57232;BME280;43488;46.934;8.276;2023-03-01T00:34:03;96879.84;;;0.98;80.42
57232;BME280;43488;46.934;8.276;2023-03-01T00:36:34;96873.19;;;0.96;81.55
57232;BME280;43488;46.934;8.276;2023-03-01T00:39:05;96878.38;;;0.96;80.99
57232;BME280;43488;46.934;8.276;2023-03-01T00:41:32;96872.38;;;0.95;80.62
57232;BME280;43488;46.934;8.276;2023-03-01T00:44:01;96868.97;;;0.95;79.62
57232;BME280;43488;46.934;8.276;2023-03-01T00:46:29;96871.25;;;0.98;79.48
57232;BME280;43488;46.934;8.276;2023-03-01T00:48:57;96865.13;;;0.99;79.34
57232;BME280;43488;46.934;8.276;2023-03-01T00:51:27;96866.22;;;0.96;79.34
57232;BME280;43488;46.934;8.276;2023-03-01T00:53:59;96867.84;;;0.97;79.76
57232;BME280;43488;46.934;8.276;2023-03-01T00:56:27;96861.03;;;0.96;79.19
57232;BME280;43488;46.934;8.276;2023-03-01T00:58:56;96862.66;;;0.97;78.57
57232;BME280;43488;46.934;8.276;2023-03-01T01:01:27;96858.97;;;1.00;78.56
57232;BME280;43488;46.934;8.276;2023-03-01T01:04:06;96854.91;;;0.97;78.58
57232;BME280;43488;46.934;8.276;2023-03-01T01:06:37;96849.03;;;0.95;78.45
57232;BME280;43488;46.934;8.276;2023-03-01T01:09:06;96852.31;;;0.97;78.00
57232;BME280;43488;46.934;8.276;2023-03-01T01:11:35;96850.66;;;0.96;78.25
57232;BME280;43488;46.934;8.276;2023-03-01T01:14:03;96844.53;;;0.97;78.84
57232;BME280;43488;46.934;8.276;2023-03-01T01:16:30;96849.03;;;0.95;79.29
57232;BME280;43488;46.934;8.276;2023-03-01T01:18:58;96848.38;;;0.93;79.63
57232;BME280;43488;46.934;8.276;2023-03-01T01:21:26;96847.25;;;0.96;80.29
57232;BME280;43488;46.934;8.276;2023-03-01T01:23:54;96843.84;;;0.95;79.80
57232;BME280;43488;46.934;8.276;2023-03-01T01:26:29;96842.22;;;0.94;80.63
57232;BME280;43488;46.934;8.276;2023-03-01T01:28:57;96839.63;;;0.94;80.89
57232;BME280;43488;46.934;8.276;2023-03-01T01:31:25;96837.84;;;0.95;80.49
57232;BME280;43488;46.934;8.276;2023-03-01T01:33:53;96836.38;;;0.92;80.13
57232;BME280;43488;46.934;8.276;2023-03-01T01:36:21;96830.22;;;0.93;80.42
57232;BME280;43488;46.934;8.276;2023-03-01T01:38:50;96829.41;;;0.93;80.26
57232;BME280;43488;46.934;8.276;2023-03-01T01:41:19;96834.59;;;0.93;80.34
57232;BME280;43488;46.934;8.276;2023-03-01T01:46:58;96816.56;;;0.91;80.10
57232;BME280;43488;46.934;8.276;2023-03-01T01:49:46;96817.25;;;0.93;80.39
57232;BME280;43488;46.934;8.276;2023-03-01T01:52:24;96811.94;;;0.95;80.46
57232;BME280;43488;46.934;8.276;2023-03-01T01:54:57;96813.84;;;0.93;80.35
57232;BME280;43488;46.934;8.276;2023-03-01T01:57:47;96813.69;;;0.94;80.11
57232;BME280;43488;46.934;8.276;2023-03-01T02:00:23;96807.56;;;0.95;80.08
57232;BME280;43488;46.934;8.276;2023-03-01T02:02:59;96804.44;;;0.92;80.43
57232;BME280;43488;46.934;8.276;2023-03-01T02:08:32;96805.09;;;0.94;81.50
57232;BME280;43488;46.934;8.276;2023-03-01T02:11:01;96786.81;;;0.95;81.85
57232;BME280;43488;46.934;8.276;2023-03-01T02:13:32;96789.13;;;0.98;81.43
57232;BME280;43488;46.934;8.276;2023-03-01T02:16:11;96790.09;;;0.97;80.71
57232;BME280;43488;46.934;8.276;2023-03-01T02:18:40;96789.41;;;0.95;80.37
57232;BME280;43488;46.934;8.276;2023-03-01T02:23:52;96785.84;;;0.96;80.78
57232;BME280;43488;46.934;8.276;2023-03-01T02:26:40;96786.81;;;0.95;81.40
57232;BME280;43488;46.934;8.276;2023-03-01T02:29:09;96783.13;;;0.98;81.00
57232;BME280;43488;46.934;8.276;2023-03-01T02:31:36;96777.78;;;0.99;81.09
57232;BME280;43488;46.934;8.276;2023-03-01T02:34:20;96781.50;;;0.97;81.16
57232;BME280;43488;46.934;8.276;2023-03-01T02:37:07;96770.81;;;1.00;81.59
57232;BME280;43488;46.934;8.276;2023-03-01T02:39:48;96769.34;;;0.97;81.72
57232;BME280;43488;46.934;8.276;2023-03-01T02:42:22;96766.91;;;0.96;81.80
57232;BME280;43488;46.934;8.276;2023-03-01T02:44:50;96766.38;;;0.92;82.99
57232;BME280;43488;46.934;8.276;2023-03-01T02:47:18;96769.91;;;0.91;83.19
57232;BME280;43488;46.934;8.276;2023-03-01T02:49:45;96769.50;;;0.86;83.16
57232;BME280;43488;46.934;8.276;2023-03-01T02:52:33;96762.03;;;0.83;83.13
57232;BME280;43488;46.934;8.276;2023-03-01T02:55:12;96762.84;;;0.83;83.27
57232;BME280;43488;46.934;8.276;2023-03-01T02:57:43;96759.28;;;0.84;83.01
57232;BME280;43488;46.934;8.276;2023-03-01T03:00:24;96755.19;;;0.82;82.39
57232;BME280;43488;46.934;8.276;2023-03-01T03:02:54;96756.28;;;0.79;82.29
57232;BME280;43488;46.934;8.276;2023-03-01T03:05:27;96759.03;;;0.78;83.10
57232;BME280;43488;46.934;8.276;2023-03-01T03:07:57;96758.88;;;0.79;82.55
57232;BME280;43488;46.934;8.276;2023-03-01T03:10:32;96756.44;;;0.78;81.72
57232;BME280;43488;46.934;8.276;2023-03-01T03:13:06;96753.44;;;0.82;81.61
57232;BME280;43488;46.934;8.276;2023-03-01T03:15:34;96762.56;;;0.87;81.45
57232;BME280;43488;46.934;8.276;2023-03-01T03:18:10;96755.31;;;0.90;80.82
57232;BME280;43488;46.934;8.276;2023-03-01T03:20:40;96749.16;;;0.91;80.42
57232;BME280;43488;46.934;8.276;2023-03-01T03:23:08;96747.53;;;0.90;80.23
57232;BME280;43488;46.934;8.276;2023-03-01T03:25:35;96744.94;;;0.90;80.22
57232;BME280;43488;46.934;8.276;2023-03-01T03:28:05;96740.44;;;0.92;80.64
57232;BME280;43488;46.934;8.276;2023-03-01T03:30:39;96744.81;;;0.92;79.97
57232;BME280;43488;46.934;8.276;2023-03-01T03:33:10;96749.84;;;0.93;80.32
57232;BME280;43488;46.934;8.276;2023-03-01T03:35:48;96752.44;;;0.93;79.69
57232;BME280;43488;46.934;8.276;2023-03-01T03:38:18;96760.09;;;0.95;79.98
57232;BME280;43488;46.934;8.276;2023-03-01T03:40:59;96744.53;;;0.95;79.97
57232;BME280;43488;46.934;8.276;2023-03-01T03:43:32;96747.25;;;0.93;79.88
57232;BME280;43488;46.934;8.276;2023-03-01T03:46:00;96741.13;;;0.94;80.41
57232;BME280;43488;46.934;8.276;2023-03-01T03:48:41;96754.06;;;0.94;79.93
57232;BME280;43488;46.934;8.276;2023-03-01T03:51:15;96748.22;;;0.92;79.32
57232;BME280;43488;46.934;8.276;2023-03-01T03:53:44;96745.63;;;0.92;79.43
57232;BME280;43488;46.934;8.276;2023-03-01T03:56:12;96736.91;;;0.93;79.51
57232;BME280;43488;46.934;8.276;2023-03-01T03:58:40;96732.66;;;0.92;79.71
57232;BME280;43488;46.934;8.276;2023-03-01T04:01:07;96730.75;;;0.94;80.60
57232;BME280;43488;46.934;8.276;2023-03-01T04:03:34;96733.50;;;0.93;80.97
57232;BME280;43488;46.934;8.276;2023-03-01T04:06:02;96736.19;;;0.91;81.82
57232;BME280;43488;46.934;8.276;2023-03-01T04:08:31;96728.72;;;0.88;81.62
57232;BME280;43488;46.934;8.276;2023-03-01T04:11:01;96728.84;;;0.87;81.34
57232;BME280;43488;46.934;8.276;2023-03-01T04:13:54;96725.75;;;0.83;81.61
57232;BME280;43488;46.934;8.276;2023-03-01T04:16:22;96726.56;;;0.83;81.60
57232;BME280;43488;46.934;8.276;2023-03-01T04:18:50;96727.94;;;0.78;81.75
57232;BME280;43488;46.934;8.276;2023-03-01T04:21:17;96721.13;;;0.77;81.88
57232;BME280;43488;46.934;8.276;2023-03-01T04:23:47;96729.03;;;0.75;82.19
57232;BME280;43488;46.934;8.276;2023-03-01T04:26:14;96721.94;;;0.77;82.31
57232;BME280;43488;46.934;8.276;2023-03-01T04:28:43;96728.59;;;0.80;83.52
57232;BME280;43488;46.934;8.276;2023-03-01T04:31:15;96720.69;;;0.81;82.91
57232;BME280;43488;46.934;8.276;2023-03-01T04:33:51;96721.91;;;0.87;82.87
57232;BME280;43488;46.934;8.276;2023-03-01T04:36:25;96729.53;;;0.89;82.76
57232;BME280;43488;46.934;8.276;2023-03-01T04:38:53;96733.38;;;0.84;83.12
57232;BME280;43488;46.934;8.276;2023-03-01T04:41:24;96731.75;;;0.83;82.73
57232;BME280;43488;46.934;8.276;2023-03-01T04:43:51;96730.94;;;0.83;82.63
57232;BME280;43488;46.934;8.276;2023-03-01T04:46:20;96730.94;;;0.83;82.66
57232;BME280;43488;46.934;8.276;2023-03-01T04:48:48;96734.19;;;0.85;82.69
57232;BME280;43488;46.934;8.276;2023-03-01T04:51:16;96729.00;;;0.85;83.60
57232;BME280;43488;46.934;8.276;2023-03-01T04:53:44;96738.13;;;0.89;82.72
57232;BME280;43488;46.934;8.276;2023-03-01T04:56:13;96729.69;;;0.87;82.53
57232;BME280;43488;46.934;8.276;2023-03-01T04:58:41;96727.75;;;0.89;82.60
57232;BME280;43488;46.934;8.276;2023-03-01T05:01:11;96731.97;;;0.90;82.13
57232;BME280;43488;46.934;8.276;2023-03-01T05:03:44;96735.97;;;0.84;82.23
57232;BME280;43488;46.934;8.276;2023-03-01T05:06:13;96729.00;;;0.85;82.40
57232;BME280;43488;46.934;8.276;2023-03-01T05:08:41;96725.16;;;0.89;82.51
57232;BME280;43488;46.934;8.276;2023-03-01T05:11:10;96723.13;;;0.93;82.79
57232;BME280;43488;46.934;8.276;2023-03-01T05:13:39;96713.41;;;0.95;82.42
57232;BME280;43488;46.934;8.276;2023-03-01T05:16:08;96710.97;;;0.93;82.31
57232;BME280;43488;46.934;8.276;2023-03-01T05:18:38;96710.97;;;0.93;81.48
57232;BME280;43488;46.934;8.276;2023-03-01T05:21:11;96705.78;;;0.93;81.29
57232;BME280;43488;46.934;8.276;2023-03-01T05:23:39;96698.97;;;0.92;81.57
57232;BME280;43488;46.934;8.276;2023-03-01T05:26:08;96699.91;;;0.91;81.01
57232;BME280;43488;46.934;8.276;2023-03-01T05:28:36;96694.88;;;0.90;80.95
57232;BME280;43488;46.934;8.276;2023-03-01T05:31:05;96694.19;;;0.88;80.92
57232;BME280;43488;46.934;8.276;2023-03-01T05:33:41;96692.44;;;0.88;81.84
57232;BME280;43488;46.934;8.276;2023-03-01T05:36:09;96693.25;;;0.89;81.14
57232;BME280;43488;46.934;8.276;2023-03-01T05:38:38;96692.56;;;0.87;81.61
57232;BME280;43488;46.934;8.276;2023-03-01T05:41:15;96698.41;;;0.89;81.28
57232;BME280;43488;46.934;8.276;2023-03-01T05:43:45;96680.72;;;0.84;81.37
57232;BME280;43488;46.934;8.276;2023-03-01T05:46:14;96695.72;;;0.80;81.42
57232;BME280;43488;46.934;8.276;2023-03-01T05:48:43;96694.91;;;0.80;81.18
57232;BME280;43488;46.934;8.276;2023-03-01T05:51:11;96686.47;;;0.78;81.55
57232;BME280;43488;46.934;8.276;2023-03-01T05:53:39;96681.44;;;0.76;81.71
57232;BME280;43488;46.934;8.276;2023-03-01T05:56:07;96681.13;;;0.79;81.68
57232;BME280;43488;46.934;8.276;2023-03-01T05:58:34;96676.09;;;0.78;81.71
57232;BME280;43488;46.934;8.276;2023-03-01T06:01:02;96674.84;;;0.82;81.76
57232;BME280;43488;46.934;8.276;2023-03-01T06:03:29;96672.13;;;0.83;81.72
57232;BME280;43488;46.934;8.276;2023-03-01T06:05:57;96675.53;;;0.84;81.58
57232;BME280;43488;46.934;8.276;2023-03-01T06:08:25;96670.63;;;0.81;82.04
57232;BME280;43488;46.934;8.276;2023-03-01T06:10:54;96663.28;;;0.76;81.81
57232;BME280;43488;46.934;8.276;2023-03-01T06:13:23;96672.03;;;0.75;81.82
57232;BME280;43488;46.934;8.276;2023-03-01T06:15:51;96672.53;;;0.79;81.71
57232;BME280;43488;46.934;8.276;2023-03-01T06:18:18;96668.47;;;0.76;82.03
57232;BME280;43488;46.934;8.276;2023-03-01T06:20:54;96671.22;;;0.75;82.56
57232;BME280;43488;46.934;8.276;2023-03-01T06:23:23;96664.91;;;0.77;82.71
57232;BME280;43488;46.934;8.276;2023-03-01T06:25:50;96665.22;;;0.74;82.32
57232;BME280;43488;46.934;8.276;2023-03-01T06:28:18;96667.66;;;0.76;83.13
57232;BME280;43488;46.934;8.276;2023-03-01T06:30:45;96664.78;;;0.79;82.62
57232;BME280;43488;46.934;8.276;2023-03-01T06:33:13;96663.81;;;0.80;82.30
57232;BME280;43488;46.934;8.276;2023-03-01T06:35:41;96653.16;;;0.83;82.93
57232;BME280;43488;46.934;8.276;2023-03-01T06:38:09;96663.53;;;0.83;82.74
57232;BME280;43488;46.934;8.276;2023-03-01T06:40:37;96661.06;;;0.81;82.61
57232;BME280;43488;46.934;8.276;2023-03-01T06:43:05;96662.72;;;0.82;82.36
57232;BME280;43488;46.934;8.276;2023-03-01T06:45:34;96660.94;;;0.83;82.49
57232;BME280;43488;46.934;8.276;2023-03-01T06:48:03;96661.63;;;0.85;82.02
57232;BME280;43488;46.934;8.276;2023-03-01T06:50:31;96656.84;;;0.80;82.11
57232;BME280;43488;46.934;8.276;2023-03-01T06:52:59;96651.66;;;0.80;81.88
57232;BME280;43488;46.934;8.276;2023-03-01T06:55:27;96655.88;;;0.81;82.61
57232;BME280;43488;46.934;8.276;2023-03-01T06:57:59;96650.44;;;0.84;83.63
57232;BME280;43488;46.934;8.276;2023-03-01T07:00:27;96662.13;;;0.89;83.11
57232;BME280;43488;46.934;8.276;2023-03-01T07:02:54;96651.09;;;0.87;82.98
57232;BME280;43488;46.934;8.276;2023-03-01T07:05:22;96655.75;;;0.83;82.22
57232;BME280;43488;46.934;8.276;2023-03-01T07:07:50;96663.91;;;0.88;82.32
57232;BME280;43488;46.934;8.276;2023-03-01T07:10:18;96665.97;;;0.84;82.52
57232;BME280;43488;46.934;8.276;2023-03-01T07:12:45;96668.13;;;0.89;82.17
57232;BME280;43488;46.934;8.276;2023-03-01T07:15:14;96655.47;;;0.86;82.14
57232;BME280;43488;46.934;8.276;2023-03-01T07:17:42;96657.09;;;0.87;82.08
57232;BME280;43488;46.934;8.276;2023-03-01T07:20:12;96655.47;;;0.86;82.06
57232;BME280;43488;46.934;8.276;2023-03-01T07:22:42;96660.34;;;0.89;82.11
57232;BME280;43488;46.934;8.276;2023-03-01T07:25:11;96657.50;;;0.92;82.57
57232;BME280;43488;46.934;8.276;2023-03-01T07:27:39;96660.75;;;0.94;82.25
57232;BME280;43488;46.934;8.276;2023-03-01T07:30:07;96662.25;;;0.97;82.60
57232;BME280;43488;46.934;8.276;2023-03-01T07:32:35;96663.19;;;0.96;82.62
57232;BME280;43488;46.934;8.276;2023-03-01T07:35:02;96654.59;;;0.95;81.84
57232;BME280;43488;46.934;8.276;2023-03-01T07:37:30;96654.47;;;0.97;81.65
57232;BME280;43488;46.934;8.276;2023-03-01T07:39:57;96657.34;;;0.94;81.29
57232;BME280;43488;46.934;8.276;2023-03-01T07:42:25;96658.41;;;1.01;81.32
57232;BME280;43488;46.934;8.276;2023-03-01T07:44:52;96656.34;;;1.04;81.21
57232;BME280;43488;46.934;8.276;2023-03-01T07:47:20;96650.19;;;1.05;81.01
57232;BME280;43488;46.934;8.276;2023-03-01T07:49:47;96644.34;;;1.03;79.95
57232;BME280;43488;46.934;8.276;2023-03-01T07:52:15;96654.31;;;0.98;81.40
57232;BME280;43488;46.934;8.276;2023-03-01T07:54:45;96645.31;;;1.02;81.30
57232;BME280;43488;46.934;8.276;2023-03-01T07:57:13;96646.25;;;1.01;80.94
57232;BME280;43488;46.934;8.276;2023-03-01T07:59:40;96648.16;;;0.99;80.99
57232;BME280;43488;46.934;8.276;2023-03-01T08:02:10;96654.16;;;1.00;81.06
57232;BME280;43488;46.934;8.276;2023-03-01T08:04:37;96647.91;;;1.02;80.59
57232;BME280;43488;46.934;8.276;2023-03-01T08:07:05;96634.25;;;1.00;80.80
57232;BME280;43488;46.934;8.276;2023-03-01T08:09:36;96644.19;;;1.05;80.42
57232;BME280;43488;46.934;8.276;2023-03-01T08:12:05;96639.81;;;1.05;80.92
57232;BME280;43488;46.934;8.276;2023-03-01T08:14:35;96638.19;;;1.04;80.97
57232;BME280;43488;46.934;8.276;2023-03-01T08:17:02;96640.13;;;1.02;80.58
57232;BME280;43488;46.934;8.276;2023-03-01T08:19:30;96646.78;;;1.05;80.61
57232;BME280;43488;46.934;8.276;2023-03-01T08:21:57;96644.69;;;1.08;79.84
57232;BME280;43488;46.934;8.276;2023-03-01T08:24:25;96637.47;;;1.12;79.34
57232;BME280;43488;46.934;8.276;2023-03-01T08:26:53;96638.13;;;1.14;78.73
57232;BME280;43488;46.934;8.276;2023-03-01T08:29:21;96645.75;;;1.16;78.93
57232;BME280;43488;46.934;8.276;2023-03-01T08:31:50;96645.63;;;1.17;78.89
57232;BME280;43488;46.934;8.276;2023-03-01T08:34:18;96644.59;;;1.10;77.66
57232;BME280;43488;46.934;8.276;2023-03-01T08:36:46;96637.47;;;1.12;79.19
57232;BME280;43488;46.934;8.276;2023-03-01T08:39:16;96634.06;;;1.11;79.22
57232;BME280;43488;46.934;8.276;2023-03-01T08:41:46;96632.28;;;1.12;79.19
57232;BME280;43488;46.934;8.276;2023-03-01T08:44:15;96629.69;;;1.12;78.60
57232;BME280;43488;46.934;8.276;2023-03-01T08:46:44;96633.53;;;1.08;78.68
57232;BME280;43488;46.934;8.276;2023-03-01T08:49:16;96638.56;;;1.09;78.03
57232;BME280;43488;46.934;8.276;2023-03-01T08:51:44;96635.28;;;1.07;77.73
57232;BME280;43488;46.934;8.276;2023-03-01T08:54:16;96628.88;;;1.11;77.97
57232;BME280;43488;46.934;8.276;2023-03-01T08:56:45;96623.25;;;1.16;78.11
57232;BME280;43488;46.934;8.276;2023-03-01T08:59:15;96622.44;;;1.16;77.08
57232;BME280;43488;46.934;8.276;2023-03-01T09:01:43;96619.97;;;1.14;76.61
57232;BME280;43488;46.934;8.276;2023-03-01T09:04:12;96622.97;;;1.19;76.18
57232;BME280;43488;46.934;8.276;2023-03-01T09:06:40;96621.56;;;1.25;76.41
57232;BME280;43488;46.934;8.276;2023-03-01T09:09:16;96621.56;;;1.25;76.09
57232;BME280;43488;46.934;8.276;2023-03-01T09:11:45;96622.22;;;1.27;75.33
57232;BME280;43488;46.934;8.276;2023-03-01T09:14:14;96609.53;;;1.24;75.50
57232;BME280;43488;46.934;8.276;2023-03-01T09:16:42;96614.06;;;1.22;75.25
57232;BME280;43488;46.934;8.276;2023-03-01T09:19:10;96609.69;;;1.22;74.05
57232;BME280;43488;46.934;8.276;2023-03-01T09:21:38;96613.63;;;1.26;73.67
57232;BME280;43488;46.934;8.276;2023-03-01T09:24:11;96611.56;;;1.30;73.70
57232;BME280;43488;46.934;8.276;2023-03-01T09:26:39;96616.44;;;1.33;73.57
57232;BME280;43488;46.934;8.276;2023-03-01T09:29:06;96618.47;;;1.39;73.27
57232;BME280;43488;46.934;8.276;2023-03-01T09:31:33;96608.91;;;1.39;71.71
57232;BME280;43488;46.934;8.276;2023-03-01T09:34:01;96611.66;;;1.38;71.14
57232;BME280;43488;46.934;8.276;2023-03-01T09:36:29;96609.72;;;1.40;71.70
57232;BME280;43488;46.934;8.276;2023-03-01T09:38:58;96613.94;;;1.41;70.82
57232;BME280;43488;46.934;8.276;2023-03-01T09:41:49;96613.63;;;1.44;70.68
57232;BME280;43488;46.934;8.276;2023-03-01T09:44:43;96605.41;;;1.49;72.02
57232;BME280;43488;46.934;8.276;2023-03-01T09:47:24;96604.88;;;1.45;73.32
57232;BME280;43488;46.934;8.276;2023-03-01T09:50:16;96609.94;;;1.47;72.95
57232;BME280;43488;46.934;8.276;2023-03-01T09:58:55;96604.53;;;1.58;73.77
57232;BME280;43488;46.934;8.276;2023-03-01T10:09:54;96598.28;;;1.68;72.43
57232;BME280;43488;46.934;8.276;2023-03-01T10:12:35;96598.59;;;1.65;72.36
57232;BME280;43488;46.934;8.276;2023-03-01T10:15:14;96601.84;;;1.67;71.81
57232;BME280;43488;46.934;8.276;2023-03-01T10:17:57;96596.00;;;1.65;71.73
57232;BME280;43488;46.934;8.276;2023-03-01T10:20:33;96589.84;;;1.66;72.21
57232;BME280;43488;46.934;8.276;2023-03-01T10:23:00;96597.31;;;1.69;71.88
57232;BME280;43488;46.934;8.276;2023-03-01T10:29:07;96595.53;;;1.70;72.18
57232;BME280;43488;46.934;8.276;2023-03-01T10:31:47;96583.75;;;1.76;72.52
57232;BME280;43488;46.934;8.276;2023-03-01T10:34:17;96594.78;;;1.78;72.25
57232;BME280;43488;46.934;8.276;2023-03-01T10:36:51;96596.13;;;1.82;72.75
57232;BME280;43488;46.934;8.276;2023-03-01T10:39:23;96590.78;;;1.83;72.47
57232;BME280;43488;46.934;8.276;2023-03-01T10:42:05;96587.34;;;1.83;73.31
57232;BME280;43488;46.934;8.276;2023-03-01T10:44:48;96584.47;;;1.86;72.61
57232;BME280;43488;46.934;8.276;2023-03-01T10:47:26;96577.19;;;1.89;72.24
57232;BME280;43488;46.934;8.276;2023-03-01T10:49:59;96582.38;;;1.89;72.13
57232;BME280;43488;46.934;8.276;2023-03-01T10:52:36;96578.66;;;1.92;72.36
57232;BME280;43488;46.934;8.276;2023-03-01T10:55:38;96573.78;;;1.89;73.13
57232;BME280;43488;46.934;8.276;2023-03-01T10:58:07;96571.03;;;1.90;72.98
57232;BME280;43488;46.934;8.276;2023-03-01T11:00:54;96576.38;;;1.89;72.36
57232;BME280;43488;46.934;8.276;2023-03-01T11:03:29;96574.59;;;1.89;72.04
57232;BME280;43488;46.934;8.276;2023-03-01T11:06:03;96579.28;;;1.86;72.03
57232;BME280;43488;46.934;8.276;2023-03-01T11:08:45;96571.19;;;1.89;72.15
57232;BME280;43488;46.934;8.276;2023-03-01T11:11:32;96576.38;;;1.89;72.08
57232;BME280;43488;46.934;8.276;2023-03-01T11:14:25;96574.75;;;1.88;71.73
57232;BME280;43488;46.934;8.276;2023-03-01T11:17:28;96572.53;;;1.93;71.59
57232;BME280;43488;46.934;8.276;2023-03-01T11:22:59;96565.75;;;2.00;71.44
57232;BME280;43488;46.934;8.276;2023-03-01T11:25:36;96566.72;;;1.99;71.17
57232;BME280;43488;46.934;8.276;2023-03-01T11:28:10;96561.88;;;2.04;71.61
57232;BME280;43488;46.934;8.276;2023-03-01T11:31:09;96560.75;;;2.07;72.24
57232;BME280;43488;46.934;8.276;2023-03-01T11:33:59;96561.25;;;2.10;71.68
57232;BME280;43488;46.934;8.276;2023-03-01T11:36:56;96549.25;;;2.09;71.27
57232;BME280;43488;46.934;8.276;2023-03-01T11:42:55;96549.25;;;2.09;71.31
57232;BME280;43488;46.934;8.276;2023-03-01T11:45:35;96539.38;;;2.13;71.45
57232;BME280;43488;46.934;8.276;2023-03-01T11:51:08;96537.94;;;2.18;70.94
57232;BME280;43488;46.934;8.276;2023-03-01T11:57:19;96547.72;;;2.24;71.50
57232;BME280;43488;46.934;8.276;2023-03-01T12:06:05;96532.81;;;2.35;71.95
57232;BME280;43488;46.934;8.276;2023-03-01T12:12:05;96519.50;;;2.38;70.67
57232;BME280;43488;46.934;8.276;2023-03-01T12:21:20;96509.84;;;2.48;70.71
57232;BME280;43488;46.934;8.276;2023-03-01T12:26:35;96515.72;;;2.58;72.71
57232;BME280;43488;46.934;8.276;2023-03-01T12:29:23;96502.06;;;2.64;70.42
57232;BME280;43488;46.934;8.276;2023-03-01T12:32:20;96500.63;;;2.62;71.14
57232;BME280;43488;46.934;8.276;2023-03-01T12:37:56;96505.16;;;2.60;70.56
57232;BME280;43488;46.934;8.276;2023-03-01T12:47:11;96508.75;;;2.67;70.54
57232;BME280;43488;46.934;8.276;2023-03-01T12:50:01;96489.78;;;2.74;71.06
57232;BME280;43488;46.934;8.276;2023-03-01T12:52:57;96498.03;;;2.70;70.81
57232;BME280;43488;46.934;8.276;2023-03-01T12:55:37;96489.63;;;2.76;70.04
57232;BME280;43488;46.934;8.276;2023-03-01T12:58:35;96490.38;;;2.60;72.04
57232;BME280;43488;46.934;8.276;2023-03-01T13:01:31;96484.41;;;2.76;71.51
57232;BME280;43488;46.934;8.276;2023-03-01T13:04:35;96480.69;;;2.87;70.12
57232;BME280;43488;46.934;8.276;2023-03-01T13:07:36;96485.69;;;2.72;71.71
57232;BME280;43488;46.934;8.276;2023-03-01T13:10:42;96484.91;;;2.79;70.13
57232;BME280;43488;46.934;8.276;2023-03-01T13:13:23;96475.81;;;2.75;70.59
57232;BME280;43488;46.934;8.276;2023-03-01T13:15:52;96471.59;;;2.91;75.27
57232;BME280;43488;46.934;8.276;2023-03-01T13:20:55;96463.81;;;2.99;72.05
57232;BME280;43488;46.934;8.276;2023-03-01T13:23:29;96470.63;;;3.00;71.60
57232;BME280;43488;46.934;8.276;2023-03-01T13:28:41;96463.28;;;2.79;70.91
57232;BME280;43488;46.934;8.276;2023-03-01T13:33:50;96463.63;;;2.92;70.23
57232;BME280;43488;46.934;8.276;2023-03-01T13:39:38;96465.41;;;2.92;70.35
57232;BME280;43488;46.934;8.276;2023-03-01T13:42:35;96461.53;;;2.96;70.68
57232;BME280;43488;46.934;8.276;2023-03-01T13:45:38;96475.84;;;2.83;70.46
57232;BME280;43488;46.934;8.276;2023-03-01T13:48:15;96486.88;;;2.85;70.93
57232;BME280;43488;46.934;8.276;2023-03-01T13:51:10;96489.16;;;2.89;71.39
57232;BME280;43488;46.934;8.276;2023-03-01T13:53:46;96490.28;;;2.86;71.47
57232;BME280;43488;46.934;8.276;2023-03-01T13:56:24;96480.47;;;2.64;72.05
57232;BME280;43488;46.934;8.276;2023-03-01T13:59:01;96499.63;;;2.63;72.64
57232;BME280;43488;46.934;8.276;2023-03-01T14:01:35;96504.06;;;2.78;71.63
57232;BME280;43488;46.934;8.276;2023-03-01T14:04:36;96504.91;;;2.79;71.18
57232;BME280;43488;46.934;8.276;2023-03-01T14:07:21;96506.19;;;2.83;71.62
57232;BME280;43488;46.934;8.276;2023-03-01T14:10:03;96504.56;;;2.82;71.96
57232;BME280;43488;46.934;8.276;2023-03-01T14:12:50;96492.38;;;2.74;71.83
57232;BME280;43488;46.934;8.276;2023-03-01T14:15:27;96480.19;;;2.83;71.61
57232;BME280;43488;46.934;8.276;2023-03-01T14:18:14;96484.28;;;2.85;71.34
57232;BME280;43488;46.934;8.276;2023-03-01T14:20:49;96484.94;;;2.88;71.86
57232;BME280;43488;46.934;8.276;2023-03-01T14:23:22;96493.06;;;2.84;71.13
57232;BME280;43488;46.934;8.276;2023-03-01T14:25:57;96493.19;;;2.83;70.03
57232;BME280;43488;46.934;8.276;2023-03-01T14:28:29;96492.72;;;2.88;70.75
57232;BME280;43488;46.934;8.276;2023-03-01T14:31:00;96475.66;;;2.85;70.85
57232;BME280;43488;46.934;8.276;2023-03-01T14:33:35;96485.22;;;2.76;70.04
57232;BME280;43488;46.934;8.276;2023-03-01T14:36:10;96480.19;;;2.83;70.00
57232;BME280;43488;46.934;8.276;2023-03-01T14:38:46;96472.56;;;2.90;70.32
57232;BME280;43488;46.934;8.276;2023-03-01T14:41:23;96476.97;;;2.89;69.49
57232;BME280;43488;46.934;8.276;2023-03-01T14:44:11;96474.19;;;2.91;69.59
57232;BME280;43488;46.934;8.276;2023-03-01T14:46:42;96472.09;;;2.94;68.92
57232;BME280;43488;46.934;8.276;2023-03-01T14:49:20;96472.28;;;2.93;68.51
57232;BME280;43488;46.934;8.276;2023-03-01T14:52:07;96461.84;;;2.84;68.73
57232;BME280;43488;46.934;8.276;2023-03-01T14:54:52;96471.28;;;2.85;68.75
57232;BME280;43488;46.934;8.276;2023-03-01T14:57:25;96470.13;;;2.88;68.59
57232;BME280;43488;46.934;8.276;2023-03-01T15:00:03;96464.59;;;2.91;68.21
57232;BME280;43488;46.934;8.276;2023-03-01T15:02:35;96469.34;;;2.96;68.68